sensor_id;sensor_type;location;lat;lon;timestamp;P1;durP1;ratioP1;P2;durP2;ratioP2
76123;SDS011;65173;48.066;20.976;2023-06-04T00:01:32;1.80;;;0.50;;
76123;SDS011;65173;48.066;20.976;2023-06-04T00:04:35;2.53;;;0.43;;
76123;SDS011;65173;48.066;20.976;2023-06-04T00:07:37;0.90;;;0.40;;
76123;SDS011;65173;48.066;20.976;2023-06-04T00:10:40;1.25;;;0.35;;
76123;SDS011;65173;48.066;20.976;2023-06-04T00:13:43;0.63;;;0.33;;
76123;SDS011;65173;48.066;20.976;2023-06-04T00:16:46;1.30;;;0.50;;
76123;SDS011;65173;48.066;20.976;2023-06-04T00:19:49;0.50;;;0.40;;
76123;SDS011;65173;48.066;20.976;2023-06-04T00:22:51;0.87;;;0.43;;
76123;SDS011;65173;48.066;20.976;2023-06-04T00:25:55;2.25;;;0.40;;
76123;SDS011;65173;48.066;20.976;2023-06-04T00:28:57;1.25;;;0.40;;
76123;SDS011;65173;48.066;20.976;2023-06-04T00:32:00;0.50;;;0.40;;
76123;SDS011;65173;48.066;20.976;2023-06-04T00:35:04;1.13;;;0.25;;
76123;SDS011;65173;48.066;20.976;2023-06-04T00:38:07;1.02;;;0.50;;
76123;SDS011;65173;48.066;20.976;2023-06-04T00:41:10;0.80;;;0.30;;
76123;SDS011;65173;48.066;20.976;2023-06-04T00:44:12;0.87;;;0.40;;
76123;SDS011;65173;48.066;20.976;2023-06-04T00:47:15;2.13;;;0.82;;
76123;SDS011;65173;48.066;20.976;2023-06-04T00:50:19;0.20;;;0.10;;
76123;SDS011;65173;48.066;20.976;2023-06-04T00:53:24;1.70;;;0.77;;
76123;SDS011;65173;48.066;20.976;2023-06-04T00:56:28;2.03;;;0.22;;
76123;SDS011;65173;48.066;20.976;2023-06-04T00:59:31;0.52;;;0.30;;
76123;SDS011;65173;48.066;20.976;2023-06-04T01:02:37;1.35;;;0.47;;
76123;SDS011;65173;48.066;20.976;2023-06-04T01:09:24;1.23;;;0.45;;
76123;SDS011;65173;48.066;20.976;2023-06-04T01:12:29;1.52;;;0.38;;
76123;SDS011;65173;48.066;20.976;2023-06-04T01:15:32;0.80;;;0.40;;
76123;SDS011;65173;48.066;20.976;2023-06-04T01:18:35;0.80;;;0.15;;
76123;SDS011;65173;48.066;20.976;2023-06-04T01:21:41;1.65;;;0.68;;
76123;SDS011;65173;48.066;20.976;2023-06-04T01:24:49;0.30;;;0.20;;
76123;SDS011;65173;48.066;20.976;2023-06-04T01:27:58;0.73;;;0.50;;
76123;SDS011;65173;48.066;20.976;2023-06-04T01:31:03;0.03;;;0.03;;
76123;SDS011;65173;48.066;20.976;2023-06-04T01:34:10;2.53;;;0.50;;
76123;SDS011;65173;48.066;20.976;2023-06-04T01:37:13;4.05;;;0.38;;
76123;SDS011;65173;48.066;20.976;2023-06-04T01:40:18;0.50;;;0.20;;
76123;SDS011;65173;48.066;20.976;2023-06-04T01:43:21;0.75;;;0.35;;
76123;SDS011;65173;48.066;20.976;2023-06-04T01:46:24;0.90;;;0.20;;
76123;SDS011;65173;48.066;20.976;2023-06-04T01:49:27;0.70;;;0.25;;
76123;SDS011;65173;48.066;20.976;2023-06-04T01:52:30;1.30;;;0.52;;
76123;SDS011;65173;48.066;20.976;2023-06-04T01:55:33;1.07;;;0.70;;
76123;SDS011;65173;48.066;20.976;2023-06-04T01:58:36;2.03;;;0.40;;
76123;SDS011;65173;48.066;20.976;2023-06-04T02:01:39;1.23;;;0.60;;
76123;SDS011;65173;48.066;20.976;2023-06-04T02:04:42;1.08;;;0.28;;
76123;SDS011;65173;48.066;20.976;2023-06-04T02:07:45;2.17;;;0.90;;
76123;SDS011;65173;48.066;20.976;2023-06-04T02:10:50;0.82;;;0.30;;
76123;SDS011;65173;48.066;20.976;2023-06-04T02:13:53;1.35;;;0.50;;
76123;SDS011;65173;48.066;20.976;2023-06-04T02:16:55;0.53;;;0.10;;
76123;SDS011;65173;48.066;20.976;2023-06-04T02:20:00;0.68;;;0.30;;
76123;SDS011;65173;48.066;20.976;2023-06-04T02:23:03;0.82;;;0.57;;
76123;SDS011;65173;48.066;20.976;2023-06-04T02:26:06;0.60;;;0.37;;
76123;SDS011;65173;48.066;20.976;2023-06-04T02:29:09;0.75;;;0.55;;
76123;SDS011;65173;48.066;20.976;2023-06-04T02:32:11;0.88;;;0.63;;
76123;SDS011;65173;48.066;20.976;2023-06-04T02:35:14;1.20;;;0.80;;
76123;SDS011;65173;48.066;20.976;2023-06-04T02:38:17;0.93;;;0.47;;
76123;SDS011;65173;48.066;20.976;2023-06-04T02:41:21;0.50;;;0.40;;
76123;SDS011;65173;48.066;20.976;2023-06-04T02:44:23;0.50;;;0.25;;
76123;SDS011;65173;48.066;20.976;2023-06-04T02:47:28;2.53;;;0.50;;
76123;SDS011;65173;48.066;20.976;2023-06-04T02:50:31;1.15;;;0.57;;
76123;SDS011;65173;48.066;20.976;2023-06-04T02:53:34;0.20;;;0.10;;
76123;SDS011;65173;48.066;20.976;2023-06-04T02:56:37;1.13;;;0.70;;
76123;SDS011;65173;48.066;20.976;2023-06-04T02:59:40;0.85;;;0.40;;
76123;SDS011;65173;48.066;20.976;2023-06-04T03:02:43;2.40;;;0.60;;
76123;SDS011;65173;48.066;20.976;2023-06-04T03:05:48;1.85;;;0.40;;
76123;SDS011;65173;48.066;20.976;2023-06-04T03:08:51;1.08;;;0.32;;
76123;SDS011;65173;48.066;20.976;2023-06-04T03:11:56;2.20;;;0.50;;
76123;SDS011;65173;48.066;20.976;2023-06-04T03:15:02;0.40;;;0.40;;
76123;SDS011;65173;48.066;20.976;2023-06-04T03:18:05;1.43;;;0.60;;
76123;SDS011;65173;48.066;20.976;2023-06-04T03:21:08;1.08;;;0.40;;
76123;SDS011;65173;48.066;20.976;2023-06-04T03:24:11;1.60;;;0.50;;
76123;SDS011;65173;48.066;20.976;2023-06-04T03:27:14;1.10;;;0.60;;
76123;SDS011;65173;48.066;20.976;2023-06-04T03:30:17;0.75;;;0.20;;
76123;SDS011;65173;48.066;20.976;2023-06-04T03:33:30;0.40;;;0.40;;
76123;SDS011;65173;48.066;20.976;2023-06-04T03:36:32;0.77;;;0.47;;
76123;SDS011;65173;48.066;20.976;2023-06-04T03:39:41;0.35;;;0.32;;
76123;SDS011;65173;48.066;20.976;2023-06-04T03:42:46;0.73;;;0.73;;
76123;SDS011;65173;48.066;20.976;2023-06-04T03:45:51;0.55;;;0.55;;
76123;SDS011;65173;48.066;20.976;2023-06-04T03:48:54;0.77;;;0.63;;
76123;SDS011;65173;48.066;20.976;2023-06-04T03:51:57;1.08;;;0.50;;
76123;SDS011;65173;48.066;20.976;2023-06-04T03:55:00;0.50;;;0.30;;
76123;SDS011;65173;48.066;20.976;2023-06-04T03:58:04;1.53;;;0.57;;
76123;SDS011;65173;48.066;20.976;2023-06-04T04:01:08;1.20;;;0.45;;
76123;SDS011;65173;48.066;20.976;2023-06-04T04:04:12;0.90;;;0.50;;
76123;SDS011;65173;48.066;20.976;2023-06-04T04:07:15;1.48;;;0.75;;
76123;SDS011;65173;48.066;20.976;2023-06-04T04:10:19;1.15;;;0.55;;
76123;SDS011;65173;48.066;20.976;2023-06-04T04:13:22;1.80;;;0.70;;
76123;SDS011;65173;48.066;20.976;2023-06-04T04:16:26;2.88;;;0.65;;
76123;SDS011;65173;48.066;20.976;2023-06-04T04:19:31;0.37;;;0.20;;
76123;SDS011;65173;48.066;20.976;2023-06-04T04:22:33;1.23;;;0.40;;
76123;SDS011;65173;48.066;20.976;2023-06-04T04:25:37;1.25;;;0.52;;
76123;SDS011;65173;48.066;20.976;2023-06-04T04:28:41;0.93;;;0.70;;
76123;SDS011;65173;48.066;20.976;2023-06-04T04:31:45;0.85;;;0.40;;
76123;SDS011;65173;48.066;20.976;2023-06-04T04:34:51;6.65;;;0.80;;
76123;SDS011;65173;48.066;20.976;2023-06-04T04:38:01;2.20;;;0.85;;
76123;SDS011;65173;48.066;20.976;2023-06-04T04:41:09;1.50;;;0.50;;
76123;SDS011;65173;48.066;20.976;2023-06-04T04:44:14;4.43;;;0.57;;
76123;SDS011;65173;48.066;20.976;2023-06-04T04:47:17;0.88;;;0.47;;
76123;SDS011;65173;48.066;20.976;2023-06-04T04:50:20;2.87;;;0.60;;
76123;SDS011;65173;48.066;20.976;2023-06-04T04:53:23;0.17;;;0.10;;
76123;SDS011;65173;48.066;20.976;2023-06-04T04:56:27;3.60;;;0.80;;
76123;SDS011;65173;48.066;20.976;2023-06-04T04:59:30;1.40;;;0.60;;
76123;SDS011;65173;48.066;20.976;2023-06-04T05:02:34;0.57;;;0.13;;
76123;SDS011;65173;48.066;20.976;2023-06-04T05:05:39;0.82;;;0.28;;
76123;SDS011;65173;48.066;20.976;2023-06-04T05:08:42;0.70;;;0.35;;
76123;SDS011;65173;48.066;20.976;2023-06-04T05:11:46;2.30;;;0.90;;
76123;SDS011;65173;48.066;20.976;2023-06-04T05:14:50;2.10;;;0.65;;
76123;SDS011;65173;48.066;20.976;2023-06-04T05:17:53;0.82;;;0.45;;
76123;SDS011;65173;48.066;20.976;2023-06-04T05:20:56;1.90;;;0.57;;
76123;SDS011;65173;48.066;20.976;2023-06-04T05:24:00;0.85;;;0.50;;
76123;SDS011;65173;48.066;20.976;2023-06-04T05:27:07;1.35;;;0.60;;
76123;SDS011;65173;48.066;20.976;2023-06-04T05:30:12;2.33;;;0.60;;
76123;SDS011;65173;48.066;20.976;2023-06-04T05:33:16;0.90;;;0.17;;
76123;SDS011;65173;48.066;20.976;2023-06-04T05:36:29;1.45;;;0.63;;
76123;SDS011;65173;48.066;20.976;2023-06-04T05:39:36;2.70;;;0.85;;
76123;SDS011;65173;48.066;20.976;2023-06-04T05:42:44;1.02;;;0.60;;
76123;SDS011;65173;48.066;20.976;2023-06-04T05:45:47;2.30;;;1.00;;
76123;SDS011;65173;48.066;20.976;2023-06-04T05:48:50;0.90;;;0.15;;
76123;SDS011;65173;48.066;20.976;2023-06-04T05:51:54;1.53;;;0.50;;
76123;SDS011;65173;48.066;20.976;2023-06-04T05:54:57;1.30;;;0.82;;
76123;SDS011;65173;48.066;20.976;2023-06-04T05:58:01;1.67;;;0.50;;
76123;SDS011;65173;48.066;20.976;2023-06-04T06:01:04;2.20;;;0.57;;
76123;SDS011;65173;48.066;20.976;2023-06-04T06:04:07;0.63;;;0.50;;
76123;SDS011;65173;48.066;20.976;2023-06-04T06:07:10;1.45;;;0.60;;
76123;SDS011;65173;48.066;20.976;2023-06-04T06:10:13;1.20;;;0.60;;
76123;SDS011;65173;48.066;20.976;2023-06-04T06:13:17;2.05;;;0.75;;
76123;SDS011;65173;48.066;20.976;2023-06-04T06:16:21;1.00;;;0.60;;
76123;SDS011;65173;48.066;20.976;2023-06-04T06:19:24;1.73;;;0.77;;
76123;SDS011;65173;48.066;20.976;2023-06-04T06:22:27;2.53;;;0.90;;
76123;SDS011;65173;48.066;20.976;2023-06-04T06:25:30;0.63;;;0.63;;
76123;SDS011;65173;48.066;20.976;2023-06-04T06:28:39;3.20;;;0.77;;
76123;SDS011;65173;48.066;20.976;2023-06-04T06:31:42;1.13;;;0.77;;
76123;SDS011;65173;48.066;20.976;2023-06-04T06:34:45;1.65;;;0.70;;
76123;SDS011;65173;48.066;20.976;2023-06-04T06:37:47;0.95;;;0.70;;
76123;SDS011;65173;48.066;20.976;2023-06-04T06:40:50;1.65;;;0.80;;
76123;SDS011;65173;48.066;20.976;2023-06-04T06:43:53;0.93;;;0.80;;
76123;SDS011;65173;48.066;20.976;2023-06-04T06:46:56;2.10;;;1.02;;
76123;SDS011;65173;48.066;20.976;2023-06-04T06:49:58;1.98;;;0.63;;
76123;SDS011;65173;48.066;20.976;2023-06-04T06:53:02;1.03;;;0.60;;
76123;SDS011;65173;48.066;20.976;2023-06-04T06:56:05;1.48;;;0.73;;
76123;SDS011;65173;48.066;20.976;2023-06-04T06:59:08;1.10;;;0.80;;
76123;SDS011;65173;48.066;20.976;2023-06-04T07:02:11;2.00;;;1.43;;
76123;SDS011;65173;48.066;20.976;2023-06-04T07:05:14;0.88;;;0.75;;
76123;SDS011;65173;48.066;20.976;2023-06-04T07:08:19;1.77;;;1.25;;
76123;SDS011;65173;48.066;20.976;2023-06-04T07:11:22;2.25;;;1.00;;
76123;SDS011;65173;48.066;20.976;2023-06-04T07:14:24;0.60;;;0.60;;
76123;SDS011;65173;48.066;20.976;2023-06-04T07:17:27;0.80;;;0.80;;
76123;SDS011;65173;48.066;20.976;2023-06-04T07:20:30;1.33;;;0.63;;
76123;SDS011;65173;48.066;20.976;2023-06-04T07:23:33;1.27;;;0.97;;
76123;SDS011;65173;48.066;20.976;2023-06-04T07:26:36;2.78;;;1.00;;
76123;SDS011;65173;48.066;20.976;2023-06-04T07:29:39;0.93;;;0.70;;
76123;SDS011;65173;48.066;20.976;2023-06-04T07:32:45;1.50;;;0.93;;
76123;SDS011;65173;48.066;20.976;2023-06-04T07:35:49;4.20;;;1.52;;
76123;SDS011;65173;48.066;20.976;2023-06-04T07:38:52;1.02;;;1.02;;
76123;SDS011;65173;48.066;20.976;2023-06-04T07:41:55;1.65;;;1.08;;
76123;SDS011;65173;48.066;20.976;2023-06-04T07:44:58;1.55;;;1.20;;
76123;SDS011;65173;48.066;20.976;2023-06-04T07:48:01;3.22;;;1.40;;
76123;SDS011;65173;48.066;20.976;2023-06-04T07:51:04;2.40;;;0.90;;
76123;SDS011;65173;48.066;20.976;2023-06-04T07:54:07;0.90;;;0.90;;
76123;SDS011;65173;48.066;20.976;2023-06-04T07:57:09;3.05;;;1.10;;
76123;SDS011;65173;48.066;20.976;2023-06-04T08:00:12;0.98;;;0.88;;
76123;SDS011;65173;48.066;20.976;2023-06-04T08:03:17;1.30;;;1.20;;
76123;SDS011;65173;48.066;20.976;2023-06-04T08:06:20;1.23;;;0.90;;
76123;SDS011;65173;48.066;20.976;2023-06-04T08:09:23;1.25;;;1.15;;
76123;SDS011;65173;48.066;20.976;2023-06-04T08:12:26;1.25;;;1.23;;
76123;SDS011;65173;48.066;20.976;2023-06-04T08:15:28;1.95;;;1.20;;
76123;SDS011;65173;48.066;20.976;2023-06-04T08:18:31;1.10;;;0.90;;
76123;SDS011;65173;48.066;20.976;2023-06-04T08:21:34;2.08;;;1.13;;
76123;SDS011;65173;48.066;20.976;2023-06-04T08:24:38;2.07;;;1.10;;
76123;SDS011;65173;48.066;20.976;2023-06-04T08:27:41;1.20;;;1.05;;
76123;SDS011;65173;48.066;20.976;2023-06-04T08:30:44;1.05;;;0.98;;
76123;SDS011;65173;48.066;20.976;2023-06-04T08:33:48;1.73;;;0.90;;
76123;SDS011;65173;48.066;20.976;2023-06-04T08:36:50;1.65;;;1.02;;
76123;SDS011;65173;48.066;20.976;2023-06-04T08:39:53;1.20;;;0.95;;
76123;SDS011;65173;48.066;20.976;2023-06-04T08:42:56;1.30;;;1.20;;
76123;SDS011;65173;48.066;20.976;2023-06-04T08:46:01;1.98;;;1.35;;
76123;SDS011;65173;48.066;20.976;2023-06-04T08:49:11;1.67;;;1.00;;
76123;SDS011;65173;48.066;20.976;2023-06-04T08:52:14;2.08;;;1.20;;
76123;SDS011;65173;48.066;20.976;2023-06-04T08:55:17;1.57;;;1.47;;
76123;SDS011;65173;48.066;20.976;2023-06-04T08:58:20;1.50;;;1.40;;
76123;SDS011;65173;48.066;20.976;2023-06-04T09:01:24;1.55;;;1.40;;
76123;SDS011;65173;48.066;20.976;2023-06-04T09:04:27;1.13;;;1.07;;
76123;SDS011;65173;48.066;20.976;2023-06-04T09:07:30;1.65;;;1.55;;
76123;SDS011;65173;48.066;20.976;2023-06-04T09:10:37;2.50;;;1.73;;
76123;SDS011;65173;48.066;20.976;2023-06-04T09:13:41;1.65;;;1.55;;
76123;SDS011;65173;48.066;20.976;2023-06-04T09:16:49;0.87;;;0.87;;
76123;SDS011;65173;48.066;20.976;2023-06-04T09:19:53;1.33;;;1.23;;
76123;SDS011;65173;48.066;20.976;2023-06-04T09:22:55;2.47;;;1.30;;
76123;SDS011;65173;48.066;20.976;2023-06-04T09:26:08;1.47;;;1.37;;
76123;SDS011;65173;48.066;20.976;2023-06-04T09:29:12;2.70;;;1.60;;
76123;SDS011;65173;48.066;20.976;2023-06-04T09:32:19;1.55;;;1.45;;
76123;SDS011;65173;48.066;20.976;2023-06-04T09:35:25;1.45;;;1.05;;
76123;SDS011;65173;48.066;20.976;2023-06-04T09:38:32;2.03;;;1.30;;
76123;SDS011;65173;48.066;20.976;2023-06-04T09:41:41;1.35;;;1.25;;
76123;SDS011;65173;48.066;20.976;2023-06-04T09:44:44;1.48;;;1.38;;
76123;SDS011;65173;48.066;20.976;2023-06-04T09:47:49;3.78;;;1.50;;
76123;SDS011;65173;48.066;20.976;2023-06-04T09:50:52;2.70;;;1.63;;
76123;SDS011;65173;48.066;20.976;2023-06-04T09:53:55;1.20;;;1.10;;
76123;SDS011;65173;48.066;20.976;2023-06-04T09:57:03;2.63;;;1.30;;
76123;SDS011;65173;48.066;20.976;2023-06-04T10:00:07;1.53;;;1.43;;
76123;SDS011;65173;48.066;20.976;2023-06-04T10:03:14;1.92;;;1.40;;
76123;SDS011;65173;48.066;20.976;2023-06-04T10:06:19;2.15;;;1.38;;
76123;SDS011;65173;48.066;20.976;2023-06-04T10:09:25;1.23;;;1.13;;
76123;SDS011;65173;48.066;20.976;2023-06-04T10:12:30;1.57;;;1.40;;
76123;SDS011;65173;48.066;20.976;2023-06-04T10:15:37;1.15;;;0.98;;
76123;SDS011;65173;48.066;20.976;2023-06-04T10:18:40;1.83;;;1.38;;
76123;SDS011;65173;48.066;20.976;2023-06-04T10:21:44;1.80;;;1.70;;
76123;SDS011;65173;48.066;20.976;2023-06-04T10:24:46;1.33;;;1.10;;
76123;SDS011;65173;48.066;20.976;2023-06-04T10:27:50;1.30;;;1.20;;
76123;SDS011;65173;48.066;20.976;2023-06-04T10:30:53;1.30;;;1.20;;
76123;SDS011;65173;48.066;20.976;2023-06-04T10:33:56;1.50;;;1.40;;
76123;SDS011;65173;48.066;20.976;2023-06-04T10:36:59;0.98;;;0.98;;
76123;SDS011;65173;48.066;20.976;2023-06-04T10:40:02;2.42;;;1.38;;
76123;SDS011;65173;48.066;20.976;2023-06-04T10:43:08;1.63;;;1.45;;
76123;SDS011;65173;48.066;20.976;2023-06-04T10:46:12;1.23;;;1.23;;
76123;SDS011;65173;48.066;20.976;2023-06-04T10:49:25;1.75;;;1.15;;
76123;SDS011;65173;48.066;20.976;2023-06-04T10:52:29;1.80;;;1.70;;
76123;SDS011;65173;48.066;20.976;2023-06-04T10:55:32;1.57;;;1.47;;
76123;SDS011;65173;48.066;20.976;2023-06-04T10:58:45;2.40;;;1.70;;
76123;SDS011;65173;48.066;20.976;2023-06-04T11:01:48;2.45;;;1.80;;
76123;SDS011;65173;48.066;20.976;2023-06-04T11:05:01;1.92;;;1.55;;
76123;SDS011;65173;48.066;20.976;2023-06-04T11:08:05;1.40;;;1.30;;
76123;SDS011;65173;48.066;20.976;2023-06-04T11:11:10;1.55;;;1.45;;
76123;SDS011;65173;48.066;20.976;2023-06-04T11:14:14;1.60;;;1.30;;
76123;SDS011;65173;48.066;20.976;2023-06-04T11:17:19;1.87;;;1.60;;
76123;SDS011;65173;48.066;20.976;2023-06-04T11:20:22;1.40;;;1.30;;
76123;SDS011;65173;48.066;20.976;2023-06-04T11:23:25;2.00;;;1.90;;
76123;SDS011;65173;48.066;20.976;2023-06-04T11:26:34;1.83;;;1.30;;
76123;SDS011;65173;48.066;20.976;2023-06-04T11:29:42;2.40;;;1.67;;
76123;SDS011;65173;48.066;20.976;2023-06-04T11:32:45;1.58;;;1.40;;
76123;SDS011;65173;48.066;20.976;2023-06-04T11:35:48;2.38;;;1.73;;
76123;SDS011;65173;48.066;20.976;2023-06-04T11:38:58;1.37;;;1.27;;
76123;SDS011;65173;48.066;20.976;2023-06-04T11:42:04;1.92;;;1.83;;
76123;SDS011;65173;48.066;20.976;2023-06-04T11:45:08;2.10;;;1.48;;
76123;SDS011;65173;48.066;20.976;2023-06-04T11:48:12;1.60;;;1.50;;
76123;SDS011;65173;48.066;20.976;2023-06-04T11:51:15;1.50;;;1.40;;
76123;SDS011;65173;48.066;20.976;2023-06-04T11:54:21;1.98;;;1.40;;
76123;SDS011;65173;48.066;20.976;2023-06-04T11:57:24;1.60;;;1.50;;
76123;SDS011;65173;48.066;20.976;2023-06-04T12:00:27;1.87;;;1.43;;
76123;SDS011;65173;48.066;20.976;2023-06-04T12:03:36;1.60;;;1.50;;
76123;SDS011;65173;48.066;20.976;2023-06-04T12:10:21;2.30;;;1.50;;
76123;SDS011;65173;48.066;20.976;2023-06-04T12:13:26;1.40;;;1.30;;
76123;SDS011;65173;48.066;20.976;2023-06-04T12:16:29;1.70;;;1.60;;
76123;SDS011;65173;48.066;20.976;2023-06-04T12:19:32;2.30;;;2.08;;
76123;SDS011;65173;48.066;20.976;2023-06-04T12:22:43;1.50;;;1.40;;
76123;SDS011;65173;48.066;20.976;2023-06-04T12:25:49;2.22;;;1.73;;
76123;SDS011;65173;48.066;20.976;2023-06-04T12:29:06;1.73;;;1.63;;
76123;SDS011;65173;48.066;20.976;2023-06-04T12:32:16;2.23;;;1.77;;
76123;SDS011;65173;48.066;20.976;2023-06-04T12:35:19;1.73;;;1.60;;
76123;SDS011;65173;48.066;20.976;2023-06-04T12:38:22;1.65;;;1.55;;
76123;SDS011;65173;48.066;20.976;2023-06-04T12:41:25;1.75;;;1.60;;
76123;SDS011;65173;48.066;20.976;2023-06-04T12:44:28;1.83;;;1.57;;
76123;SDS011;65173;48.066;20.976;2023-06-04T12:47:31;1.65;;;1.50;;
76123;SDS011;65173;48.066;20.976;2023-06-04T12:50:34;1.40;;;1.30;;
76123;SDS011;65173;48.066;20.976;2023-06-04T12:53:40;1.35;;;1.27;;
76123;SDS011;65173;48.066;20.976;2023-06-04T12:56:43;3.15;;;1.35;;
76123;SDS011;65173;48.066;20.976;2023-06-04T12:59:46;2.15;;;1.10;;
76123;SDS011;65173;48.066;20.976;2023-06-04T13:02:49;1.52;;;1.33;;
76123;SDS011;65173;48.066;20.976;2023-06-04T13:05:52;2.13;;;1.30;;
76123;SDS011;65173;48.066;20.976;2023-06-04T13:08:55;3.42;;;1.40;;
76123;SDS011;65173;48.066;20.976;2023-06-04T13:11:58;1.80;;;1.65;;
76123;SDS011;65173;48.066;20.976;2023-06-04T13:15:01;1.25;;;1.10;;
76123;SDS011;65173;48.066;20.976;2023-06-04T13:18:04;1.23;;;1.13;;
76123;SDS011;65173;48.066;20.976;2023-06-04T13:21:07;1.63;;;1.42;;
76123;SDS011;65173;48.066;20.976;2023-06-04T13:24:10;1.70;;;1.58;;
76123;SDS011;65173;48.066;20.976;2023-06-04T13:27:13;1.77;;;1.60;;
76123;SDS011;65173;48.066;20.976;2023-06-04T13:30:15;1.98;;;1.40;;
76123;SDS011;65173;48.066;20.976;2023-06-04T13:33:18;1.33;;;1.23;;
76123;SDS011;65173;48.066;20.976;2023-06-04T13:36:22;1.42;;;1.33;;
76123;SDS011;65173;48.066;20.976;2023-06-04T13:39:25;3.92;;;1.42;;
76123;SDS011;65173;48.066;20.976;2023-06-04T13:42:28;2.22;;;1.83;;
76123;SDS011;65173;48.066;20.976;2023-06-04T13:45:30;1.98;;;1.42;;
76123;SDS011;65173;48.066;20.976;2023-06-04T13:48:33;1.43;;;1.10;;
76123;SDS011;65173;48.066;20.976;2023-06-04T13:51:36;1.63;;;1.13;;
76123;SDS011;65173;48.066;20.976;2023-06-04T13:54:39;1.65;;;1.55;;
76123;SDS011;65173;48.066;20.976;2023-06-04T13:57:42;1.38;;;1.27;;
76123;SDS011;65173;48.066;20.976;2023-06-04T14:00:45;1.50;;;1.20;;
76123;SDS011;65173;48.066;20.976;2023-06-04T14:03:47;2.05;;;1.27;;
76123;SDS011;65173;48.066;20.976;2023-06-04T14:06:50;1.33;;;1.23;;
76123;SDS011;65173;48.066;20.976;2023-06-04T14:09:53;1.87;;;1.40;;
76123;SDS011;65173;48.066;20.976;2023-06-04T14:12:57;1.02;;;1.02;;
76123;SDS011;65173;48.066;20.976;2023-06-04T14:16:00;2.05;;;1.38;;
76123;SDS011;65173;48.066;20.976;2023-06-04T14:19:02;1.55;;;1.20;;
76123;SDS011;65173;48.066;20.976;2023-06-04T14:22:05;3.03;;;1.15;;
76123;SDS011;65173;48.066;20.976;2023-06-04T14:25:08;1.67;;;1.30;;
76123;SDS011;65173;48.066;20.976;2023-06-04T14:28:11;1.35;;;1.25;;
76123;SDS011;65173;48.066;20.976;2023-06-04T14:31:14;1.87;;;1.33;;
76123;SDS011;65173;48.066;20.976;2023-06-04T14:34:16;1.60;;;1.10;;
76123;SDS011;65173;48.066;20.976;2023-06-04T14:37:19;1.15;;;0.93;;
76123;SDS011;65173;48.066;20.976;2023-06-04T14:40:23;2.25;;;1.25;;
76123;SDS011;65173;48.066;20.976;2023-06-04T14:43:26;2.90;;;1.60;;
76123;SDS011;65173;48.066;20.976;2023-06-04T14:46:28;1.35;;;1.25;;
76123;SDS011;65173;48.066;20.976;2023-06-04T14:49:31;2.22;;;1.00;;
76123;SDS011;65173;48.066;20.976;2023-06-04T14:52:34;2.23;;;0.80;;
76123;SDS011;65173;48.066;20.976;2023-06-04T14:55:36;1.77;;;1.67;;
76123;SDS011;65173;48.066;20.976;2023-06-04T14:58:40;1.70;;;1.10;;
76123;SDS011;65173;48.066;20.976;2023-06-04T15:01:42;1.47;;;1.10;;
76123;SDS011;65173;48.066;20.976;2023-06-04T15:04:45;2.15;;;1.30;;
76123;SDS011;65173;48.066;20.976;2023-06-04T15:07:51;2.08;;;1.73;;
76123;SDS011;65173;48.066;20.976;2023-06-04T15:10:54;1.30;;;1.10;;
76123;SDS011;65173;48.066;20.976;2023-06-04T15:13:56;2.35;;;1.33;;
76123;SDS011;65173;48.066;20.976;2023-06-04T15:16:59;3.03;;;1.30;;
76123;SDS011;65173;48.066;20.976;2023-06-04T15:20:02;2.00;;;1.20;;
76123;SDS011;65173;48.066;20.976;2023-06-04T15:23:06;1.47;;;1.10;;
76123;SDS011;65173;48.066;20.976;2023-06-04T15:26:08;3.22;;;1.38;;
76123;SDS011;65173;48.066;20.976;2023-06-04T15:29:12;1.30;;;1.20;;
76123;SDS011;65173;48.066;20.976;2023-06-04T15:32:15;1.33;;;1.20;;
76123;SDS011;65173;48.066;20.976;2023-06-04T15:35:18;2.55;;;1.45;;
76123;SDS011;65173;48.066;20.976;2023-06-04T15:38:21;2.10;;;1.63;;
76123;SDS011;65173;48.066;20.976;2023-06-04T15:41:23;1.20;;;1.10;;
76123;SDS011;65173;48.066;20.976;2023-06-04T15:44:26;1.73;;;1.63;;
76123;SDS011;65173;48.066;20.976;2023-06-04T15:47:30;2.33;;;1.50;;
76123;SDS011;65173;48.066;20.976;2023-06-04T15:50:32;3.22;;;1.30;;
76123;SDS011;65173;48.066;20.976;2023-06-04T15:53:35;2.00;;;1.40;;
76123;SDS011;65173;48.066;20.976;2023-06-04T15:56:38;2.95;;;1.63;;
76123;SDS011;65173;48.066;20.976;2023-06-04T15:59:41;1.50;;;1.10;;
76123;SDS011;65173;48.066;20.976;2023-06-04T16:02:43;3.33;;;1.83;;
76123;SDS011;65173;48.066;20.976;2023-06-04T16:05:46;4.60;;;1.45;;
76123;SDS011;65173;48.066;20.976;2023-06-04T16:08:49;2.90;;;1.33;;
76123;SDS011;65173;48.066;20.976;2023-06-04T16:11:52;1.38;;;1.20;;
76123;SDS011;65173;48.066;20.976;2023-06-04T16:14:54;1.45;;;1.27;;
76123;SDS011;65173;48.066;20.976;2023-06-04T16:17:57;3.08;;;1.95;;
76123;SDS011;65173;48.066;20.976;2023-06-04T16:21:00;4.75;;;3.08;;
76123;SDS011;65173;48.066;20.976;2023-06-04T16:24:04;3.90;;;2.33;;
76123;SDS011;65173;48.066;20.976;2023-06-04T16:27:06;4.97;;;3.17;;
76123;SDS011;65173;48.066;20.976;2023-06-04T16:30:10;2.15;;;1.42;;
76123;SDS011;65173;48.066;20.976;2023-06-04T16:33:13;1.67;;;1.23;;
76123;SDS011;65173;48.066;20.976;2023-06-04T16:36:16;2.30;;;1.30;;
76123;SDS011;65173;48.066;20.976;2023-06-04T16:39:18;2.63;;;1.80;;
76123;SDS011;65173;48.066;20.976;2023-06-04T16:42:22;2.92;;;2.00;;
76123;SDS011;65173;48.066;20.976;2023-06-04T16:45:26;3.33;;;1.73;;
76123;SDS011;65173;48.066;20.976;2023-06-04T16:48:29;2.53;;;1.60;;
76123;SDS011;65173;48.066;20.976;2023-06-04T16:51:32;1.75;;;1.30;;
76123;SDS011;65173;48.066;20.976;2023-06-04T16:54:35;1.87;;;1.30;;
76123;SDS011;65173;48.066;20.976;2023-06-04T16:57:38;2.38;;;1.58;;
76123;SDS011;65173;48.066;20.976;2023-06-04T17:00:41;3.70;;;1.40;;
76123;SDS011;65173;48.066;20.976;2023-06-04T17:03:43;2.70;;;1.50;;
76123;SDS011;65173;48.066;20.976;2023-06-04T17:06:46;2.63;;;1.50;;
76123;SDS011;65173;48.066;20.976;2023-06-04T17:09:49;3.38;;;1.70;;
76123;SDS011;65173;48.066;20.976;2023-06-04T17:12:52;3.90;;;1.70;;
76123;SDS011;65173;48.066;20.976;2023-06-04T17:15:54;1.63;;;1.50;;
76123;SDS011;65173;48.066;20.976;2023-06-04T17:18:57;4.90;;;2.08;;
76123;SDS011;65173;48.066;20.976;2023-06-04T17:22:00;3.38;;;1.83;;
76123;SDS011;65173;48.066;20.976;2023-06-04T17:25:05;1.43;;;1.10;;
76123;SDS011;65173;48.066;20.976;2023-06-04T17:28:08;2.88;;;1.13;;
76123;SDS011;65173;48.066;20.976;2023-06-04T17:31:11;5.00;;;1.17;;
76123;SDS011;65173;48.066;20.976;2023-06-04T17:34:19;3.10;;;1.57;;
76123;SDS011;65173;48.066;20.976;2023-06-04T17:37:22;2.83;;;1.13;;
76123;SDS011;65173;48.066;20.976;2023-06-04T17:40:26;2.33;;;1.45;;
76123;SDS011;65173;48.066;20.976;2023-06-04T17:43:29;1.55;;;1.40;;
76123;SDS011;65173;48.066;20.976;2023-06-04T17:46:31;1.67;;;1.58;;
76123;SDS011;65173;48.066;20.976;2023-06-04T17:49:34;2.47;;;1.30;;
76123;SDS011;65173;48.066;20.976;2023-06-04T17:52:37;2.45;;;1.20;;
76123;SDS011;65173;48.066;20.976;2023-06-04T17:55:40;3.10;;;1.27;;
76123;SDS011;65173;48.066;20.976;2023-06-04T17:58:43;5.78;;;2.72;;
76123;SDS011;65173;48.066;20.976;2023-06-04T18:01:47;6.07;;;4.00;;
76123;SDS011;65173;48.066;20.976;2023-06-04T18:04:50;11.10;;;6.10;;
76123;SDS011;65173;48.066;20.976;2023-06-04T18:07:53;15.25;;;8.40;;
76123;SDS011;65173;48.066;20.976;2023-06-04T18:10:56;23.65;;;12.50;;
76123;SDS011;65173;48.066;20.976;2023-06-04T18:14:01;23.70;;;10.40;;
76123;SDS011;65173;48.066;20.976;2023-06-04T18:17:07;14.40;;;5.65;;